This demonstration page uses our WeatherBlox Daily Observations layout. Learn more.

38.89511, -77.03637

Hourly Observations for April 8, 2017

Temp ( °F °C ) Dew Point ( °F °C ) Humidity (%) Winds ( mph kmh ) Pressure ( in mb ) Visibility ( mi km ) Precip ( " mm )
12:52 am 00:52 Clear 42 5.6 26 -3.3 53 53 NW 7 11 29.88 1012 10 16.09344 0 0
1:52 am 01:52 Clear 42 5.6 25 -3.9 51 51 WSW 3 6 29.88 1012 10 16.09344 0 0
2:52 am 02:52 Clear 42 5.6 24 -4.4 49 49 WNW 9 15 29.88 1012 10 16.09344 0 0
3:52 am 03:52 Clear 40 4.4 24 -4.4 53 53 WNW 5 7 29.91 1013 10 16.09344 0 0
4:52 am 04:52 Clear 41 5 22 -5.6 47 47 NW 9 15 29.91 1013 10 16.09344 0 0
5:52 am 05:52 Mostly Clear 40 4.4 21 -6.1 47 47 WNW 7 11 29.94 1014 10 16.09344 0 0
6:52 am 06:52 Mostly Sunny 40 4.4 21 -6.1 47 47 WNW 10 17 29.97 1015 10 16.09344 0 0
7:52 am 07:52 Mostly Sunny 43 6.1 19 -7.2 38 38 W 8 13 30 1016 10 16.09344 0 0
8:52 am 08:52 Mostly Sunny 47 8.3 18 -7.8 31 31 WNW 12 19 30 1016 10 16.09344 0 0
9:52 am 09:52 Mostly Sunny 50 10 18 -7.8 28 28 NW 15 24 30 1016 10 16.09344 0 0
10:52 am 10:52 Mostly Sunny 53 11.7 19 -7.2 26 26 NNW 15 24 30 1016 10 16.09344 0 0
11:52 am 11:52 Sunny 55 12.8 19 -7.2 24 24 WNW 13 20 30 1016 10 16.09344 0 0
12:52 pm 12:52 Sunny 58 14.4 18 -7.8 21 21 NNW 17 28 30 1016 10 16.09344 0 0
1:52 pm 13:52 Mostly Sunny 61 16.1 20 -6.7 20 20 WNW 16 26 29.97 1015 10 16.09344 0 0
2:09 pm 14:09 Mostly Sunny 62 16.7 19 -7.2 19 19 NW 16 26 29.97 1015 10 16.09344 0 0
2:52 pm 14:52 Partly Cloudy 62 16.7 19 -7.2 19 19 WNW 12 19 29.94 1014 10 16.09344 0 0
3:52 pm 15:52 Mostly Cloudy 63 17.2 18 -7.8 17 17 W 13 20 29.94 1014 10 16.09344 0 0
4:52 pm 16:52 Mostly Cloudy 64 17.8 18 -7.8 17 17 N 7 11 29.94 1014 10 16.09344 0 0
5:52 pm 17:52 Mostly Cloudy 63 17.2 18 -7.8 17 17 NW 12 19 29.94 1014 10 16.09344 0 0
6:52 pm 18:52 Partly Cloudy 62 16.7 17 -8.3 17 17 NW 15 24 29.94 1014 10 16.09344 0 0
7:52 pm 19:52 Mostly Clear 60 15.6 19 -7.2 20 20 NNW 10 17 29.97 1015 10 16.09344 0 0
8:52 pm 20:52 Mostly Clear 59 15 21 -6.1 23 23 NW 8 13 30 1016 10 16.09344 0 0
9:52 pm 21:52 Clear 57 13.9 23 -5 27 27 NW 7 11 30.03 1017 10 16.09344 0 0
10:52 pm 22:52 Clear 55 12.8 29 -1.7 37 37 NW 5 7 30.03 1017 10 16.09344 0 0
11:52 pm 23:52 Clear 49 9.4 31 -0.6 50 50 SW 6 9 30.06 1018 10 16.09344 0 0

Powered by AerisWeather